Time;durP1;ratioP1;P1;durP2;ratioP2;P2;SDS_P1;SDS_P2;PMS_P1;PMS_P2;Temp;Humidity;BMP_temperature;BMP_pressure;BME280_temperature;BME280_humidity;BME280_pressure;Samples;Min_cycle;Max_cycle;Signal;HPM_P1;HPM_P2
2024/01/21 00:00:30;;;;;;;12.73;12.33;;;-2.00;99.90;;;;;;5043330;28;20572;-68
2024/01/21 00:02:57;;;;;;;12.73;12.33;;;-2.00;99.90;;;;;;5044242;28;20863;-67
2024/01/21 00:05:23;;;;;;;12.50;12.10;;;-1.90;99.90;;;;;;5038501;28;20841;-68
2024/01/21 00:07:51;;;;;;;12.30;11.90;;;-1.90;99.90;;;;;;5046102;28;20462;-68
2024/01/21 00:10:20;;;;;;;12.77;12.37;;;-1.90;99.90;;;;;;5040071;28;20461;-67
2024/01/21 00:12:46;;;;;;;12.47;12.07;;;-1.90;99.90;;;;;;5043276;28;20465;-67
2024/01/21 00:15:13;;;;;;;12.97;12.57;;;-1.90;99.90;;;;;;5039565;28;20456;-68
2024/01/21 00:17:40;;;;;;;12.97;12.57;;;-1.90;99.90;;;;;;5042128;28;20480;-68
2024/01/21 00:20:07;;;;;;;12.87;12.47;;;-1.80;99.90;;;;;;5037828;28;20465;-68
2024/01/21 00:22:35;;;;;;;12.70;12.30;;;-1.80;99.90;;;;;;5044930;28;20475;-69
2024/01/21 00:25:04;;;;;;;13.20;12.80;;;-1.80;99.90;;;;;;5043565;28;20497;-69
2024/01/21 00:27:46;;;;;;;12.50;12.10;;;-1.80;99.90;;;;;;5046104;28;20467;-67
2024/01/21 00:30:13;;;;;;;12.93;12.53;;;-1.80;99.90;;;;;;5041855;28;20469;-67
2024/01/21 00:32:40;;;;;;;12.90;12.50;;;-1.80;99.90;;;;;;5045487;28;20565;-69
2024/01/21 00:35:08;;;;;;;12.70;12.30;;;-1.80;99.90;;;;;;5042703;28;20468;-65
2024/01/21 00:37:35;;;;;;;13.07;12.67;;;-1.80;99.90;;;;;;5040483;28;20463;-68
2024/01/21 00:40:05;;;;;;;13.00;12.60;;;-1.80;99.90;;;;;;5042889;28;20527;-67
2024/01/21 00:42:31;;;;;;;13.40;13.00;;;-1.80;99.90;;;;;;5045778;28;20982;-67
2024/01/21 00:44:58;;;;;;;12.80;12.40;;;-1.80;99.90;;;;;;5044937;28;20465;-67
2024/01/21 00:47:25;;;;;;;13.13;12.73;;;-1.70;99.90;;;;;;5048575;28;20517;-67
2024/01/21 00:49:52;;;;;;;13.53;13.13;;;-1.70;99.90;;;;;;5045504;28;20487;-67
2024/01/21 00:52:19;;;;;;;13.13;12.73;;;-1.80;99.90;;;;;;5047021;28;20502;-66
2024/01/21 00:54:46;;;;;;;13.13;12.73;;;-1.70;99.90;;;;;;5042823;28;20502;-66
2024/01/21 00:57:14;;;;;;;13.57;13.17;;;-1.70;99.90;;;;;;5043050;28;20460;-66
2024/01/21 00:59:42;;;;;;;13.70;13.30;;;-1.80;99.90;;;;;;5048205;28;20504;-68
2024/01/21 01:02:09;;;;;;;13.50;13.10;;;-1.80;99.90;;;;;;5045185;28;20502;-68
2024/01/21 01:04:35;;;;;;;13.27;12.87;;;-1.80;99.90;;;;;;5047246;28;20463;-67
2024/01/21 01:07:03;;;;;;;13.43;13.03;;;-1.80;99.90;;;;;;5046257;28;20834;-66
2024/01/21 01:09:29;;;;;;;13.70;13.30;;;-1.70;99.90;;;;;;5048109;28;20471;-67
2024/01/21 01:11:56;;;;;;;14.00;13.50;;;-1.70;99.90;;;;;;5048101;28;20830;-67
2024/01/21 01:14:25;;;;;;;13.70;13.30;;;-1.70;99.90;;;;;;5047843;28;20456;-68
2024/01/21 01:16:51;;;;;;;13.03;12.63;;;-1.80;99.90;;;;;;5045266;28;20479;-67
2024/01/21 01:19:18;;;;;;;14.10;13.60;;;-1.80;99.90;;;;;;5044815;28;20503;-68
2024/01/21 01:21:46;;;;;;;14.00;13.50;;;-1.70;99.90;;;;;;5050188;28;20478;-67
2024/01/21 01:24:13;;;;;;;13.27;12.87;;;-1.70;99.90;;;;;;5046085;28;20467;-68
2024/01/21 01:26:41;;;;;;;13.57;13.17;;;-1.70;99.90;;;;;;5047946;28;20508;-68
2024/01/21 01:29:09;;;;;;;14.00;13.50;;;-1.70;99.90;;;;;;5046208;28;20459;-67
2024/01/21 01:31:38;;;;;;;13.70;13.30;;;-1.70;99.90;;;;;;5047435;28;20471;-67
2024/01/21 01:34:07;;;;;;;13.70;13.30;;;-1.70;99.90;;;;;;5046751;28;20469;-67
2024/01/21 01:36:34;;;;;;;13.90;13.40;;;-1.60;99.90;;;;;;5042854;28;20550;-67
2024/01/21 01:39:01;;;;;;;13.30;12.90;;;-1.60;99.90;;;;;;5046040;28;20534;-68
2024/01/21 01:41:43;;;;;;;13.33;12.93;;;-1.50;99.90;;;;;;5042365;28;20459;-68
2024/01/21 01:44:10;;;;;;;14.10;13.60;;;-1.50;99.90;;;;;;5038113;28;20500;-67
2024/01/21 01:46:40;;;;;;;13.60;13.20;;;-1.50;99.90;;;;;;5042894;28;20492;-67
2024/01/21 01:49:06;;;;;;;13.43;13.03;;;-1.50;99.90;;;;;;5039354;28;20484;-67
2024/01/21 01:51:37;;;;;;;14.00;13.50;;;-1.40;99.90;;;;;;5046612;28;20464;-67
2024/01/21 01:54:05;;;;;;;14.17;13.67;;;-1.50;99.90;;;;;;5043971;28;20514;-67
2024/01/21 01:56:32;;;;;;;13.57;13.17;;;-1.50;99.90;;;;;;5038391;28;20459;-68
2024/01/21 01:59:01;;;;;;;14.03;13.53;;;-1.50;99.90;;;;;;5038746;28;20501;-67
2024/01/21 02:01:28;;;;;;;13.70;13.30;;;-1.50;99.90;;;;;;5042450;28;20462;-67
2024/01/21 02:03:57;;;;;;;13.60;13.20;;;-1.50;99.90;;;;;;5031984;28;20462;-67
2024/01/21 02:06:24;;;;;;;14.10;13.60;;;-1.40;99.90;;;;;;5041651;28;20468;-67
2024/01/21 02:08:50;;;;;;;13.90;13.47;;;-1.50;99.90;;;;;;5044435;28;20464;-68
2024/01/21 02:11:18;;;;;;;13.93;13.43;;;-1.40;99.90;;;;;;5045038;28;20466;-67
2024/01/21 02:13:45;;;;;;;13.70;13.30;;;-1.50;99.90;;;;;;5042124;28;20512;-67
2024/01/21 02:16:12;;;;;;;13.90;13.50;;;-1.50;99.90;;;;;;5046048;28;20464;-68
2024/01/21 02:18:41;;;;;;;13.70;13.30;;;-1.50;99.90;;;;;;5040513;28;20496;-68
2024/01/21 02:21:09;;;;;;;14.47;13.97;;;-1.50;99.90;;;;;;5037917;28;20525;-67
2024/01/21 02:23:37;;;;;;;14.20;13.70;;;-1.50;99.90;;;;;;5037651;28;20465;-69
2024/01/21 02:26:05;;;;;;;14.33;13.83;;;-1.50;99.90;;;;;;5038804;28;20464;-68
2024/01/21 02:28:32;;;;;;;13.90;13.50;;;-1.60;99.90;;;;;;5044450;28;20471;-67
2024/01/21 02:30:59;;;;;;;14.20;13.70;;;-1.60;99.90;;;;;;5042903;28;20467;-67
2024/01/21 02:33:26;;;;;;;14.30;13.80;;;-1.60;99.90;;;;;;5039853;28;20954;-68
2024/01/21 02:35:54;;;;;;;14.40;13.90;;;-1.60;99.90;;;;;;5040709;28;20551;-67
2024/01/21 02:38:21;;;;;;;13.97;13.47;;;-1.60;99.90;;;;;;5047646;28;20473;-67
2024/01/21 02:40:49;;;;;;;14.03;13.53;;;-1.60;99.90;;;;;;5043411;28;20462;-67
2024/01/21 02:43:17;;;;;;;13.63;13.23;;;-1.60;99.90;;;;;;5048003;28;20472;-66
2024/01/21 02:45:43;;;;;;;14.00;13.50;;;-1.60;99.90;;;;;;5038987;28;20468;-67
2024/01/21 02:48:10;;;;;;;14.27;13.77;;;-1.60;99.90;;;;;;5039836;28;20484;-66
2024/01/21 02:50:37;;;;;;;13.93;13.53;;;-1.70;99.90;;;;;;5043550;28;20481;-66
2024/01/21 02:53:04;;;;;;;13.77;13.37;;;-1.60;99.90;;;;;;5047424;28;20461;-66
2024/01/21 02:55:31;;;;;;;14.37;13.87;;;-1.60;99.90;;;;;;5048789;28;20789;-67
2024/01/21 02:58:00;;;;;;;14.90;14.40;;;-1.60;99.90;;;;;;5040418;28;20466;-66
2024/01/21 03:00:26;;;;;;;15.13;14.63;;;-1.70;99.90;;;;;;5041525;28;20496;-67
2024/01/21 03:02:54;;;;;;;14.60;14.10;;;-1.80;99.90;;;;;;5040692;28;20462;-67
2024/01/21 03:05:22;;;;;;;14.43;13.93;;;-1.80;99.90;;;;;;5039270;28;20469;-67
2024/01/21 03:07:50;;;;;;;14.60;14.10;;;-1.70;99.90;;;;;;5047924;28;20457;-66
2024/01/21 03:10:17;;;;;;;15.07;14.57;;;-1.70;99.90;;;;;;5041712;28;20461;-67
2024/01/21 03:12:43;;;;;;;14.87;14.37;;;-1.70;99.90;;;;;;5038994;28;20462;-67
2024/01/21 03:15:12;;;;;;;14.43;13.93;;;-1.70;99.90;;;;;;5043998;28;20487;-66
2024/01/21 03:17:39;;;;;;;15.13;14.63;;;-1.80;99.90;;;;;;5041520;28;20527;-67
2024/01/21 03:20:08;;;;;;;15.87;15.27;;;-1.70;99.90;;;;;;5037085;28;20500;-67
2024/01/21 03:22:35;;;;;;;15.33;14.83;;;-1.70;99.90;;;;;;5035010;28;20822;-68
2024/01/21 03:25:02;;;;;;;15.40;14.90;;;-1.70;99.90;;;;;;5041840;28;20837;-67
2024/01/21 03:27:29;;;;;;;15.30;14.77;;;-1.70;99.90;;;;;;5048142;28;20458;-67
2024/01/21 03:29:57;;;;;;;15.77;15.17;;;-1.60;99.90;;;;;;5044604;28;20463;-67
2024/01/21 03:32:25;;;;;;;15.70;15.10;;;-1.60;99.90;;;;;;5041757;28;21262;-67
2024/01/21 03:34:52;;;;;;;15.60;15.00;;;-1.70;99.90;;;;;;5046942;28;20584;-67
2024/01/21 03:37:19;;;;;;;15.03;14.53;;;-1.70;99.90;;;;;;5039570;28;20462;-67
2024/01/21 03:39:46;;;;;;;15.70;15.10;;;-1.60;99.90;;;;;;5042409;28;20523;-67
2024/01/21 03:42:13;;;;;;;15.70;15.10;;;-1.60;99.90;;;;;;5044049;28;20896;-67
2024/01/21 03:44:40;;;;;;;14.97;14.47;;;-1.60;99.90;;;;;;5047152;28;20461;-67
2024/01/21 03:47:07;;;;;;;14.93;14.43;;;-1.50;99.90;;;;;;5033713;28;20628;-68
2024/01/21 03:49:36;;;;;;;15.20;14.70;;;-1.50;99.90;;;;;;5037739;28;20473;-68
2024/01/21 03:52:03;;;;;;;15.73;15.13;;;-1.50;99.90;;;;;;5039927;28;20473;-68
2024/01/21 03:54:30;;;;;;;15.43;14.93;;;-1.50;99.90;;;;;;5040225;28;21241;-68
2024/01/21 03:56:56;;;;;;;15.70;15.10;;;-1.50;99.90;;;;;;5041306;28;20458;-67
2024/01/21 03:59:23;;;;;;;15.47;14.97;;;-1.50;99.90;;;;;;5034798;28;20481;-68
2024/01/21 04:01:50;;;;;;;16.20;15.60;;;-1.50;99.90;;;;;;5042982;28;20629;-67
2024/01/21 04:04:16;;;;;;;15.40;14.90;;;-1.50;99.90;;;;;;5039766;28;20494;-68
2024/01/21 04:06:46;;;;;;;15.83;15.23;;;-1.40;99.90;;;;;;5042414;28;20470;-67
2024/01/21 04:09:15;;;;;;;15.23;14.73;;;-1.50;99.90;;;;;;5035493;28;20466;-68
2024/01/21 04:11:42;;;;;;;14.83;14.33;;;-1.40;99.90;;;;;;5043072;28;20465;-67
2024/01/21 04:14:09;;;;;;;15.50;15.00;;;-1.40;99.90;;;;;;5033925;28;20516;-67
2024/01/21 04:16:36;;;;;;;15.37;14.87;;;-1.30;99.90;;;;;;5036972;28;20457;-68
2024/01/21 04:19:04;;;;;;;15.47;14.97;;;-1.30;99.90;;;;;;5042636;28;20980;-68
2024/01/21 04:21:32;;;;;;;15.10;14.60;;;-1.30;99.90;;;;;;5045774;28;20519;-68
2024/01/21 04:24:02;;;;;;;16.30;15.70;;;-1.20;99.90;;;;;;5051266;28;20457;-68
2024/01/21 04:26:29;;;;;;;15.93;15.33;;;-1.20;99.90;;;;;;5038125;28;20473;-67
2024/01/21 04:28:56;;;;;;;15.87;15.27;;;-1.20;99.90;;;;;;5048284;28;20475;-68
2024/01/21 04:31:23;;;;;;;16.07;15.47;;;-1.20;99.90;;;;;;5043329;28;20909;-67
2024/01/21 04:33:49;;;;;;;15.40;14.90;;;-1.10;99.90;;;;;;5047583;28;20492;-67
2024/01/21 04:36:17;;;;;;;15.47;14.97;;;-1.10;99.90;;;;;;5047448;28;20469;-68
2024/01/21 04:38:44;;;;;;;15.47;14.97;;;-1.10;99.90;;;;;;5045003;28;20467;-68
2024/01/21 04:41:13;;;;;;;15.27;14.77;;;-1.10;99.90;;;;;;5037910;28;20868;-67
2024/01/21 04:43:40;;;;;;;15.27;14.77;;;-1.10;99.90;;;;;;5047439;28;20470;-68
2024/01/21 04:46:07;;;;;;;15.70;15.20;;;-1.10;99.90;;;;;;5046861;28;20692;-67
2024/01/21 04:48:35;;;;;;;15.20;14.70;;;-1.20;99.90;;;;;;5049707;28;20478;-67
2024/01/21 04:51:02;;;;;;;15.20;14.70;;;-1.10;99.90;;;;;;5045320;28;20453;-67
2024/01/21 04:53:29;;;;;;;15.60;15.10;;;-1.10;99.90;;;;;;5045748;28;20456;-67
2024/01/21 04:55:56;;;;;;;15.33;14.83;;;-1.10;99.90;;;;;;5041965;28;20470;-67
2024/01/21 04:58:24;;;;;;;15.63;15.13;;;-1.10;99.90;;;;;;5046766;28;20477;-67
2024/01/21 05:00:51;;;;;;;16.40;15.80;;;-1.20;99.90;;;;;;5046499;28;20495;-68
2024/01/21 05:03:18;;;;;;;15.53;15.03;;;-1.10;99.90;;;;;;5048321;28;20465;-68
2024/01/21 05:05:47;;;;;;;15.90;15.30;;;-1.10;99.90;;;;;;5047026;28;20480;-67
2024/01/21 05:08:15;;;;;;;15.50;15.00;;;-1.10;99.90;;;;;;5046788;28;20476;-68
2024/01/21 05:10:42;;;;;;;14.77;14.27;;;-1.20;99.90;;;;;;5050393;28;20488;-68
2024/01/21 05:13:10;;;;;;;14.73;14.23;;;-1.10;99.90;;;;;;5049609;28;20490;-68
2024/01/21 05:15:38;;;;;;;15.37;14.87;;;-1.10;99.90;;;;;;5046783;28;20458;-68
2024/01/21 05:18:05;;;;;;;15.47;14.97;;;-1.10;99.90;;;;;;5046618;28;20468;-67
2024/01/21 05:20:32;;;;;;;15.13;14.63;;;-1.10;99.90;;;;;;5046519;28;20533;-68
2024/01/21 05:22:59;;;;;;;14.87;14.37;;;-1.10;99.90;;;;;;5049467;28;20478;-68
2024/01/21 05:25:27;;;;;;;15.13;14.63;;;-1.20;99.90;;;;;;5045260;28;20474;-68
2024/01/21 05:27:53;;;;;;;15.80;15.30;;;-1.20;99.90;;;;;;5046675;28;20465;-68
2024/01/21 05:30:20;;;;;;;15.30;14.80;;;-1.20;99.90;;;;;;5044534;28;20730;-68
2024/01/21 05:32:50;;;;;;;15.27;14.77;;;-1.20;99.90;;;;;;5047788;28;20872;-68
2024/01/21 05:35:18;;;;;;;15.27;14.77;;;-1.20;99.90;;;;;;5048784;28;20490;-68
2024/01/21 05:37:45;;;;;;;14.87;14.37;;;-1.20;99.90;;;;;;5044133;28;20512;-67
2024/01/21 05:40:12;;;;;;;15.43;14.93;;;-1.20;99.90;;;;;;5045661;28;20887;-68
2024/01/21 05:42:39;;;;;;;15.23;14.73;;;-1.20;99.90;;;;;;5037406;28;20461;-68
2024/01/21 05:45:08;;;;;;;14.60;14.10;;;-1.10;99.90;;;;;;5030430;28;20824;-67
2024/01/21 05:47:35;;;;;;;15.50;15.00;;;-1.20;99.90;;;;;;5048679;28;20579;-68
2024/01/21 05:50:03;;;;;;;15.30;14.80;;;-1.20;99.90;;;;;;5048264;28;20572;-69
2024/01/21 05:52:33;;;;;;;15.10;14.60;;;-1.20;99.90;;;;;;5042145;28;20509;-68
2024/01/21 05:55:00;;;;;;;15.40;14.90;;;-1.10;99.90;;;;;;5039824;28;20466;-67
2024/01/21 05:57:29;;;;;;;14.70;14.20;;;-1.10;99.90;;;;;;5040689;28;20459;-67
2024/01/21 05:59:58;;;;;;;15.00;14.50;;;-1.10;99.90;;;;;;5039240;28;20493;-68
2024/01/21 06:02:25;;;;;;;14.93;14.43;;;-1.10;99.90;;;;;;5043042;28;20544;-67
2024/01/21 06:04:51;;;;;;;15.10;14.60;;;-1.00;99.90;;;;;;5042143;28;20799;-68
2024/01/21 06:07:19;;;;;;;15.13;14.63;;;-1.00;99.90;;;;;;5043404;28;20471;-68
2024/01/21 06:09:46;;;;;;;14.43;13.93;;;-0.90;99.90;;;;;;5043720;28;20472;-68
2024/01/21 06:12:14;;;;;;;15.27;14.77;;;-0.90;99.90;;;;;;5041622;28;21456;-68
2024/01/21 06:14:41;;;;;;;15.17;14.67;;;-0.80;99.90;;;;;;5040203;28;20537;-67
2024/01/21 06:17:09;;;;;;;15.77;15.20;;;-0.80;99.90;;;;;;5039889;28;20463;-69
2024/01/21 06:19:36;;;;;;;15.70;15.20;;;-0.70;99.90;;;;;;5042972;28;20486;-68
2024/01/21 06:22:04;;;;;;;15.20;14.70;;;-0.60;99.90;;;;;;5046909;28;20585;-67
2024/01/21 06:24:35;;;;;;;15.10;14.60;;;-0.60;99.90;;;;;;5046832;28;20835;-68
2024/01/21 06:27:02;;;;;;;15.37;14.87;;;-0.50;99.90;;;;;;5031113;28;20459;-68
2024/01/21 06:29:29;;;;;;;16.07;15.47;;;-0.50;99.90;;;;;;5043356;28;20500;-68
2024/01/21 06:31:56;;;;;;;16.10;15.50;;;-0.50;99.90;;;;;;5042571;28;20467;-68
2024/01/21 06:34:23;;;;;;;15.50;15.00;;;-0.50;99.90;;;;;;5047549;28;20466;-68
2024/01/21 06:36:50;;;;;;;15.60;15.10;;;-0.50;99.90;;;;;;5036773;28;20453;-67
2024/01/21 06:39:17;;;;;;;15.80;15.20;;;-0.50;99.90;;;;;;5041028;28;20470;-67
2024/01/21 06:41:45;;;;;;;16.17;15.57;;;-0.50;99.90;;;;;;5036776;28;22535;-67
2024/01/21 06:44:11;;;;;;;15.90;15.30;;;-0.50;99.90;;;;;;5045552;28;20458;-68
2024/01/21 06:46:38;;;;;;;14.97;14.47;;;-0.40;99.90;;;;;;5042622;28;21351;-67
2024/01/21 06:49:06;;;;;;;15.20;14.70;;;-0.40;99.90;;;;;;5044613;28;20897;-67
2024/01/21 06:51:42;;;;;;;14.60;14.10;;;-0.30;99.90;;;;;;5041653;28;20712;-68
2024/01/21 06:54:09;;;;;;;15.47;14.97;;;-0.30;99.90;;;;;;5047392;28;20529;-68
2024/01/21 06:56:36;;;;;;;15.70;15.20;;;-0.30;99.90;;;;;;5043022;28;20504;-67
2024/01/21 06:59:05;;;;;;;14.70;14.20;;;-0.30;99.90;;;;;;5043057;28;21131;-67
2024/01/21 07:01:32;;;;;;;15.10;14.60;;;-0.20;99.90;;;;;;5043109;28;20483;-67
2024/01/21 07:04:00;;;;;;;14.80;14.30;;;-0.20;99.90;;;;;;5039142;28;20475;-68
2024/01/21 07:06:26;;;;;;;14.97;14.47;;;-0.20;99.90;;;;;;5041480;28;20796;-68
2024/01/21 07:08:53;;;;;;;15.17;14.67;;;-0.20;99.90;;;;;;5042699;28;20506;-68
2024/01/21 07:11:20;;;;;;;15.10;14.60;;;-0.20;99.90;;;;;;5041907;28;20514;-68
2024/01/21 07:13:47;;;;;;;14.33;13.83;;;-0.20;99.90;;;;;;5044729;28;20458;-68
2024/01/21 07:16:15;;;;;;;14.70;14.20;;;-0.10;99.90;;;;;;5044968;28;20480;-68
2024/01/21 07:18:41;;;;;;;15.10;14.60;;;-0.20;99.90;;;;;;5045642;28;20456;-68
2024/01/21 07:21:08;;;;;;;15.40;14.90;;;-0.20;99.90;;;;;;5042725;28;20965;-67
2024/01/21 07:23:38;;;;;;;15.57;15.07;;;-0.10;99.90;;;;;;5044495;28;20470;-68
2024/01/21 07:26:05;;;;;;;15.57;15.07;;;-0.20;99.90;;;;;;5037220;28;20466;-68
2024/01/21 07:28:32;;;;;;;15.40;14.80;;;-0.20;99.90;;;;;;5040556;28;20450;-68
2024/01/21 07:30:58;;;;;;;15.10;14.60;;;-0.10;99.90;;;;;;5045123;28;20539;-68
2024/01/21 07:33:27;;;;;;;14.90;14.40;;;-0.10;99.90;;;;;;5040732;28;20468;-67
2024/01/21 07:35:53;;;;;;;15.43;14.93;;;-0.10;99.90;;;;;;5043976;28;20512;-68
2024/01/21 07:38:20;;;;;;;15.30;14.80;;;-0.10;99.90;;;;;;5044449;28;20465;-68
2024/01/21 07:40:47;;;;;;;15.67;15.17;;;0.00;99.90;;;;;;5032505;28;20483;-68
2024/01/21 07:43:14;;;;;;;15.43;14.93;;;0.10;99.90;;;;;;5043394;28;20656;-67
2024/01/21 07:45:42;;;;;;;16.17;15.57;;;0.20;99.90;;;;;;5038224;28;20475;-67
2024/01/21 07:48:09;;;;;;;15.17;14.67;;;0.30;99.90;;;;;;5044397;28;20466;-68
2024/01/21 07:50:38;;;;;;;15.80;15.30;;;0.30;99.90;;;;;;5045584;28;20568;-68
2024/01/21 07:53:06;;;;;;;16.43;15.83;;;0.30;99.90;;;;;;5045894;28;20471;-68
2024/01/21 07:55:33;;;;;;;15.47;14.97;;;0.30;99.90;;;;;;5044244;28;20494;-68
2024/01/21 07:58:15;;;;;;;16.50;15.90;;;0.40;99.90;;;;;;5045207;28;21044;-69
2024/01/21 08:00:42;;;;;;;15.90;15.40;;;0.40;99.90;;;;;;5042508;28;20517;-67
2024/01/21 08:03:09;;;;;;;15.37;14.87;;;0.50;99.90;;;;;;5039783;28;20472;-68
2024/01/21 08:05:38;;;;;;;15.73;15.23;;;0.40;99.90;;;;;;5040572;28;20527;-68
2024/01/21 08:08:06;;;;;;;15.10;14.60;;;0.40;99.90;;;;;;5042679;28;20466;-68
2024/01/21 08:10:33;;;;;;;15.43;14.93;;;0.50;99.90;;;;;;5036502;28;20445;-67
2024/01/21 08:13:00;;;;;;;16.60;16.00;;;0.50;99.90;;;;;;5036384;28;20466;-68
2024/01/21 08:15:27;;;;;;;15.73;15.23;;;0.50;99.90;;;;;;5041303;28;20597;-68
2024/01/21 08:17:55;;;;;;;15.77;15.27;;;0.60;99.90;;;;;;5042973;28;20467;-68
2024/01/21 08:20:22;;;;;;;16.50;15.90;;;0.60;99.90;;;;;;5038558;28;21026;-68
2024/01/21 08:22:51;;;;;;;15.50;15.00;;;0.60;99.90;;;;;;5044476;28;20550;-69
2024/01/21 08:25:18;;;;;;;15.87;15.37;;;0.70;99.90;;;;;;5038504;28;20471;-68
2024/01/21 08:27:46;;;;;;;16.10;15.50;;;0.90;99.90;;;;;;5029739;28;22465;-69
2024/01/21 08:30:14;;;;;;;15.67;15.17;;;1.00;99.90;;;;;;5035602;28;20466;-69
2024/01/21 08:32:41;;;;;;;15.43;14.93;;;1.00;99.90;;;;;;5042127;28;20512;-69
2024/01/21 08:35:09;;;;;;;15.10;14.60;;;1.00;99.90;;;;;;5038612;28;20470;-69
2024/01/21 08:37:37;;;;;;;16.30;15.70;;;1.10;99.90;;;;;;5039874;28;20454;-69
2024/01/21 08:40:07;;;;;;;15.70;15.13;;;1.20;99.90;;;;;;5042511;28;20491;-68
2024/01/21 08:42:34;;;;;;;15.50;15.00;;;1.20;99.90;;;;;;5046290;28;20524;-69
2024/01/21 08:45:01;;;;;;;14.33;13.83;;;1.30;99.90;;;;;;5041369;28;20460;-69
2024/01/21 08:47:28;;;;;;;15.10;14.60;;;1.30;99.90;;;;;;5042492;28;21012;-67
2024/01/21 08:49:56;;;;;;;14.80;14.30;;;1.30;99.90;;;;;;5046325;28;20494;-68
2024/01/21 08:52:23;;;;;;;14.73;14.23;;;1.30;99.90;;;;;;5040974;28;20471;-69
2024/01/21 08:54:49;;;;;;;14.90;14.40;;;1.50;99.90;;;;;;5035134;28;20981;-68
2024/01/21 08:57:18;;;;;;;14.93;14.43;;;1.60;99.90;;;;;;5038405;28;20818;-68
2024/01/21 08:59:46;;;;;;;15.53;15.03;;;1.70;99.90;;;;;;5038935;28;20468;-67
2024/01/21 09:02:13;;;;;;;14.40;13.90;;;1.70;99.90;;;;;;5037461;28;20494;-68
2024/01/21 09:04:41;;;;;;;15.10;14.60;;;1.80;99.90;;;;;;5043398;28;20471;-68
2024/01/21 09:07:08;;;;;;;15.20;14.70;;;1.90;99.90;;;;;;5046048;28;20590;-67
2024/01/21 09:09:35;;;;;;;14.40;13.90;;;2.00;99.90;;;;;;5048325;28;20471;-68
2024/01/21 09:12:03;;;;;;;15.90;15.30;;;2.10;99.90;;;;;;5049035;28;20488;-68
2024/01/21 09:14:31;;;;;;;15.13;14.63;;;2.20;99.90;;;;;;5040332;28;20456;-68
2024/01/21 09:16:58;;;;;;;14.10;13.70;;;2.30;99.90;;;;;;5048067;28;20463;-68
2024/01/21 09:19:25;;;;;;;15.10;14.60;;;2.30;99.90;;;;;;5044924;28;20954;-68
2024/01/21 09:21:52;;;;;;;14.80;14.30;;;2.40;99.90;;;;;;5047859;28;20853;-69
2024/01/21 09:24:21;;;;;;;15.30;14.80;;;2.60;99.90;;;;;;5036720;28;20464;-68
2024/01/21 09:26:48;;;;;;;14.43;13.93;;;2.70;99.90;;;;;;5043403;28;20502;-68
2024/01/21 09:29:15;;;;;;;15.63;15.13;;;2.80;99.90;;;;;;5045664;28;20464;-68
2024/01/21 09:31:52;;;;;;;15.50;14.93;;;2.90;99.90;;;;;;5044015;28;20460;-67
2024/01/21 09:34:19;;;;;;;15.37;14.87;;;2.90;99.90;;;;;;5042922;28;20464;-68
2024/01/21 09:36:45;;;;;;;15.30;14.80;;;2.90;99.90;;;;;;5044123;28;20460;-67
2024/01/21 09:39:12;;;;;;;15.30;14.80;;;2.90;99.90;;;;;;5040644;28;20455;-67
2024/01/21 09:41:48;;;;;;;15.50;14.93;;;2.90;99.90;;;;;;5039939;28;20841;-68
2024/01/21 09:44:16;;;;;;;14.70;14.20;;;2.80;99.90;;;;;;5040204;28;20510;-68
2024/01/21 09:46:50;;;;;;;14.77;14.27;;;2.80;99.90;;;;;;5034863;28;20888;-68
2024/01/21 09:49:20;;;;;;;14.90;14.40;;;2.80;99.90;;;;;;5037996;28;20480;-69
2024/01/21 09:51:49;;;;;;;15.20;14.70;;;2.70;99.90;;;;;;5040195;28;20464;-69
2024/01/21 09:54:15;;;;;;;14.70;14.20;;;2.70;99.90;;;;;;5039325;28;20472;-68
2024/01/21 09:56:43;;;;;;;14.70;14.20;;;2.90;99.90;;;;;;5041013;28;20574;-67
2024/01/21 09:59:10;;;;;;;14.70;14.20;;;2.90;99.90;;;;;;5041911;28;20987;-66
2024/01/21 10:01:38;;;;;;;14.97;14.47;;;2.80;99.90;;;;;;5039315;28;20499;-66
2024/01/21 10:04:06;;;;;;;14.23;13.80;;;2.80;99.90;;;;;;5042127;28;20460;-69
2024/01/21 10:06:35;;;;;;;14.30;13.90;;;2.80;99.90;;;;;;5040562;28;20464;-69
2024/01/21 10:09:16;;;;;;;14.70;14.20;;;2.80;99.90;;;;;;5040585;28;20554;-67
2024/01/21 10:11:43;;;;;;;15.20;14.70;;;2.90;99.90;;;;;;5037931;28;20540;-66
2024/01/21 10:14:10;;;;;;;15.10;14.60;;;2.80;99.90;;;;;;5041540;28;20845;-65
2024/01/21 10:16:41;;;;;;;14.60;14.10;;;2.80;99.90;;;;;;5041217;28;20466;-68
2024/01/21 10:19:13;;;;;;;15.20;14.70;;;2.70;99.90;;;;;;5039682;28;20549;-67
2024/01/21 10:21:39;;;;;;;14.70;14.20;;;2.70;99.90;;;;;;5039627;28;20496;-67
2024/01/21 10:24:08;;;;;;;14.40;13.90;;;2.70;99.90;;;;;;5041975;28;20969;-68
2024/01/21 10:26:36;;;;;;;13.97;13.47;;;2.80;99.90;;;;;;5038177;28;20496;-66
2024/01/21 10:29:03;;;;;;;14.37;13.87;;;2.60;99.90;;;;;;5039060;28;20828;-68
2024/01/21 10:31:32;;;;;;;14.07;13.57;;;2.60;99.90;;;;;;5041225;28;20452;-69
2024/01/21 10:34:00;;;;;;;14.00;13.50;;;2.90;99.90;;;;;;5041779;28;20947;-67
2024/01/21 10:36:32;;;;;;;14.03;13.53;;;3.10;99.90;;;;;;5040502;28;20467;-68
2024/01/21 10:39:02;;;;;;;14.30;13.80;;;3.10;99.90;;;;;;5042622;28;20465;-69
2024/01/21 10:41:31;;;;;;;14.03;13.53;;;3.20;99.90;;;;;;5037019;28;20469;-69
2024/01/21 10:43:59;;;;;;;14.40;13.90;;;3.10;99.90;;;;;;5040375;28;20485;-69
2024/01/21 10:46:26;;;;;;;14.20;13.70;;;3.20;99.90;;;;;;5036745;28;20826;-69
2024/01/21 10:48:57;;;;;;;13.83;13.40;;;3.20;99.90;;;;;;5041180;28;20462;-69
2024/01/21 10:51:24;;;;;;;13.90;13.40;;;3.10;99.90;;;;;;5036607;28;20549;-68
2024/01/21 10:53:54;;;;;;;15.10;14.60;;;3.00;99.90;;;;;;5038876;28;21035;-71
2024/01/21 10:56:23;;;;;;;14.50;14.00;;;3.20;99.90;;;;;;5037456;28;20476;-71
2024/01/21 10:58:50;;;;;;;14.50;14.00;;;3.20;99.90;;;;;;5041416;28;20539;-71
2024/01/21 11:01:18;;;;;;;13.50;13.10;;;3.20;99.90;;;;;;5037969;28;20523;-69
2024/01/21 11:03:50;;;;;;;12.83;12.43;;;3.30;99.90;;;;;;5038289;28;20460;-72
2024/01/21 11:06:18;;;;;;;13.57;13.17;;;3.30;99.90;;;;;;5039096;28;20479;-74
2024/01/21 11:08:45;;;;;;;13.50;13.10;;;3.30;99.90;;;;;;5038557;28;20456;-69
2024/01/21 11:11:20;;;;;;;13.80;13.40;;;3.30;99.90;;;;;;5042129;28;20975;-71
2024/01/21 11:13:47;;;;;;;13.47;13.07;;;3.40;99.90;;;;;;5039479;28;20463;-75
2024/01/21 11:16:35;;;;;;;13.90;13.40;;;3.50;99.90;;;;;;5039299;28;20459;-73
2024/01/21 11:19:07;;;;;;;13.20;12.80;;;3.40;99.90;;;;;;5040385;28;20558;-76
2024/01/21 11:21:38;;;;;;;13.20;12.80;;;3.50;99.90;;;;;;5037250;28;20992;-71
2024/01/21 11:24:08;;;;;;;13.50;13.10;;;3.60;99.90;;;;;;5036239;28;20458;-75
2024/01/21 11:26:38;;;;;;;13.37;12.97;;;3.70;99.90;;;;;;5036824;28;20788;-73
2024/01/21 11:29:23;;;;;;;13.90;13.40;;;3.70;99.90;;;;;;5038344;28;21069;-72
2024/01/21 11:31:50;;;;;;;13.27;12.87;;;3.80;99.90;;;;;;5041099;28;20454;-71
2024/01/21 11:34:18;;;;;;;13.60;13.20;;;3.80;99.90;;;;;;5037095;28;20468;-70
2024/01/21 11:36:47;;;;;;;13.77;13.33;;;3.90;99.90;;;;;;5037521;28;20474;-73
2024/01/21 11:39:15;;;;;;;14.30;13.80;;;3.90;99.90;;;;;;5038739;28;20461;-71
2024/01/21 11:41:45;;;;;;;14.30;13.80;;;4.00;99.90;;;;;;5038103;28;20536;-72
2024/01/21 11:44:13;;;;;;;14.67;14.17;;;4.10;99.90;;;;;;5038402;28;20899;-72
2024/01/21 11:46:41;;;;;;;14.73;14.23;;;4.10;99.90;;;;;;5038052;28;21096;-73
2024/01/21 11:49:09;;;;;;;14.63;14.13;;;4.20;99.90;;;;;;5028617;28;20484;-73
2024/01/21 11:51:37;;;;;;;14.50;14.00;;;4.30;99.90;;;;;;5046094;28;20453;-71
2024/01/21 11:54:05;;;;;;;14.60;14.10;;;4.30;99.90;;;;;;5032953;28;20464;-73
2024/01/21 11:56:32;;;;;;;14.67;14.17;;;4.40;99.90;;;;;;5034839;28;20464;-72
2024/01/21 11:58:59;;;;;;;14.90;14.40;;;4.40;99.90;;;;;;5042471;28;20471;-72
2024/01/21 12:01:30;;;;;;;14.63;14.13;;;4.40;99.90;;;;;;5042972;28;20833;-72
2024/01/21 12:04:00;;;;;;;14.70;14.20;;;4.40;99.90;;;;;;5041918;28;20469;-72
2024/01/21 12:06:30;;;;;;;14.23;13.73;;;4.50;99.90;;;;;;5040603;28;20453;-72
2024/01/21 12:09:00;;;;;;;14.77;14.27;;;4.50;99.90;;;;;;5032827;28;20895;-72
2024/01/21 12:11:27;;;;;;;14.63;14.13;;;4.50;99.90;;;;;;5040658;28;20477;-71
2024/01/21 12:13:57;;;;;;;14.70;14.20;;;4.40;99.90;;;;;;5042901;28;20824;-71
2024/01/21 12:16:25;;;;;;;14.50;14.00;;;4.40;99.90;;;;;;5039343;28;20899;-71
2024/01/21 12:18:52;;;;;;;14.40;13.90;;;4.30;99.90;;;;;;5034744;28;20462;-71
2024/01/21 12:21:27;;;;;;;14.67;14.17;;;4.30;99.90;;;;;;5035526;28;20477;-71
2024/01/21 12:23:55;;;;;;;14.70;14.20;;;4.40;99.90;;;;;;5046793;28;20471;-70
2024/01/21 12:26:25;;;;;;;14.80;14.30;;;4.30;99.90;;;;;;5043459;28;20977;-71
2024/01/21 12:28:58;;;;;;;14.60;14.10;;;4.30;99.90;;;;;;5043835;28;20831;-70
2024/01/21 12:31:31;;;;;;;14.70;14.20;;;4.30;99.90;;;;;;5043963;28;20903;-71
2024/01/21 12:34:03;;;;;;;14.20;13.70;;;4.40;99.90;;;;;;5044976;28;20863;-72